Gotha, Florida
Current Conditions -  °F | °C
As of 3:53 PM on Tuesday 27 Jan 2015 (Local Time) from KORL Reporting Station
Clear Clear  
Wind Chill: 67°   Ceiling: Unl
Heat Index: 67°   Visibility: 10mi
Dew Point: 41°   Wind: 21mph
Humidity: 39%   Direction: 270°W
Pressure: 29.9"   Gusts: 31mph
Location:  28.53°N, 81.52°W
Report Text: KORL 272053Z AUTO 27018G27KT 10SM CLR 19/05 A2990 RMK AO2 PK WND 28030/1957 SLP131 T01940050 56020
Loading
Personal Weather Stations






























Interactive Weather Map New forecast layout! Learn more

10-Day Weather Forecast

Advertisements
Track Severe Weather on mobile